createdAt,value
2022-09-03T00:01:02.238Z,62.77
2022-09-03T00:02:15.329Z,62.33
2022-09-03T00:03:19.158Z,62.16
2022-09-03T00:04:39.938Z,62.33
2022-09-03T00:05:46.427Z,62.19
2022-09-03T00:06:50.149Z,62.17
2022-09-03T00:08:03.253Z,62.42
2022-09-03T00:09:15.942Z,62.53
2022-09-03T00:10:22.759Z,62.53
2022-09-03T00:11:29.324Z,63.96
2022-09-03T00:12:33.782Z,64.95
2022-09-03T00:13:54.031Z,64.35
2022-09-03T00:15:06.764Z,63.99
2022-09-03T00:16:10.676Z,62.91
2022-09-03T00:17:17.383Z,62.43
2022-09-03T00:18:21.188Z,62.18
2022-09-03T00:19:25.533Z,62.47
2022-09-03T00:20:33.414Z,62.54
2022-09-03T00:21:40.189Z,62.77
2022-09-03T00:22:53.071Z,62.73
2022-09-03T00:23:56.591Z,62.86
2022-09-03T00:24:58.948Z,62.67
2022-09-03T00:26:02.915Z,62.65
2022-09-03T00:27:06.643Z,62.71
2022-09-03T00:28:13.368Z,62.86
2022-09-03T00:29:17.141Z,62.74
2022-09-03T00:30:19.086Z,62.59
2022-09-03T00:31:22.949Z,62.50
2022-09-03T00:32:36.131Z,62.30
2022-09-03T00:33:39.118Z,62.34
2022-09-03T00:34:45.626Z,62.30
2022-09-03T00:35:49.412Z,62.31
2022-09-03T00:36:51.421Z,62.07
2022-09-03T00:37:53.965Z,61.94
2022-09-03T00:38:57.133Z,61.74
2022-09-03T00:39:59.243Z,61.74
2022-09-03T00:41:19.661Z,61.84
2022-09-03T00:42:41.930Z,62.10
2022-09-03T00:43:48.459Z,62.10
2022-09-03T00:44:55.210Z,61.65
2022-09-03T00:46:05.030Z,61.60
2022-09-03T00:47:14.786Z,61.62
2022-09-03T00:48:27.861Z,61.51
2022-09-03T00:49:42.394Z,61.89
2022-09-03T00:50:49.103Z,61.62
2022-09-03T00:52:09.559Z,61.52
2022-09-03T00:53:13.391Z,61.64
2022-09-03T00:54:17.115Z,61.28
2022-09-03T00:55:20.937Z,61.48
2022-09-03T00:56:24.880Z,61.66
2022-09-03T00:57:32.093Z,61.94
2022-09-03T00:58:35.804Z,62.32
2022-09-03T00:59:48.705Z,62.42
2022-09-03T01:00:50.908Z,62.29
2022-09-03T01:01:54.885Z,62.33
2022-09-03T01:03:11.127Z,62.19
2022-09-03T01:04:23.959Z,62.04
2022-09-03T01:05:27.709Z,62.16
2022-09-03T01:06:48.298Z,61.88
2022-09-03T01:08:07.392Z,61.91
2022-09-03T01:09:29.441Z,61.77
2022-09-03T01:10:45.247Z,61.69
2022-09-03T01:11:58.313Z,61.80
2022-09-03T01:13:18.925Z,62.08
2022-09-03T01:14:32.169Z,62.21
2022-09-03T01:15:35.933Z,62.17
2022-09-03T01:16:45.852Z,62.36
2022-09-03T01:17:52.632Z,62.44
2022-09-03T01:19:02.317Z,62.30
2022-09-03T01:20:22.815Z,62.37
2022-09-03T01:21:29.684Z,62.30
2022-09-03T01:22:50.895Z,62.23
2022-09-03T01:24:06.689Z,62.44
2022-09-03T01:25:16.167Z,62.23
2022-09-03T01:26:29.219Z,62.22
2022-09-03T01:27:32.926Z,62.28
2022-09-03T01:28:51.785Z,62.42
2022-09-03T01:29:58.340Z,62.41
2022-09-03T01:31:05.088Z,62.44
2022-09-03T01:32:08.840Z,62.37
2022-09-03T01:33:12.700Z,62.36
2022-09-03T01:34:19.178Z,62.64
2022-09-03T01:35:22.941Z,62.48
2022-09-03T01:36:27.670Z,62.69
2022-09-03T01:37:37.400Z,62.87
2022-09-03T01:38:41.239Z,62.61
2022-09-03T01:39:46.377Z,62.48
2022-09-03T01:41:05.795Z,62.52
2022-09-03T01:42:09.500Z,62.44
2022-09-03T01:43:22.293Z,62.65
2022-09-03T01:44:35.051Z,63.19
2022-09-03T01:45:41.922Z,63.02
2022-09-03T01:46:47.403Z,62.94
2022-09-03T01:48:08.032Z,62.93
2022-09-03T01:49:21.083Z,62.91
2022-09-03T01:50:30.716Z,63.49
2022-09-03T01:51:32.771Z,63.32
2022-09-03T01:52:39.229Z,63.18
2022-09-03T01:53:46.492Z,63.14
2022-09-03T01:54:50.244Z,63.46
2022-09-03T01:56:03.196Z,63.39
2022-09-03T01:57:19.133Z,63.58
2022-09-03T01:58:15.790Z,63.40
2022-09-03T01:59:32.064Z,63.13
2022-09-03T02:00:35.788Z,63.27
2022-09-03T02:01:39.687Z,63.35
2022-09-03T02:02:42.572Z,63.83
2022-09-03T02:03:45.263Z,63.93
2022-09-03T02:04:58.747Z,64.19
2022-09-03T02:06:00.799Z,64.35
2022-09-03T02:07:03.179Z,64.33
2022-09-03T02:08:06.901Z,64.20
2022-09-03T02:09:09.154Z,64.35
2022-09-03T02:10:13.190Z,64.30
2022-09-03T02:11:15.186Z,64.11
2022-09-03T02:12:17.967Z,63.74
2022-09-03T02:13:24.647Z,63.60
2022-09-03T02:14:27.028Z,63.62
2022-09-03T02:15:29.066Z,63.44
2022-09-03T02:16:32.780Z,63.61
2022-09-03T02:17:35.523Z,63.53
2022-09-03T02:18:39.268Z,63.38
2022-09-03T02:19:41.202Z,63.74
2022-09-03T02:20:44.101Z,63.60
2022-09-03T02:21:54.019Z,63.56
2022-09-03T02:22:57.171Z,63.41
2022-09-03T02:23:59.129Z,63.46
2022-09-03T02:25:01.197Z,63.47
2022-09-03T02:26:03.293Z,63.72
2022-09-03T02:27:05.151Z,63.80
2022-09-03T02:28:17.270Z,63.76
2022-09-03T02:29:12.733Z,63.61
2022-09-03T02:30:14.809Z,63.80
2022-09-03T02:31:16.851Z,63.65
2022-09-03T02:32:18.915Z,63.77
2022-09-03T02:33:20.786Z,64.03
2022-09-03T02:34:22.606Z,63.80
2022-09-03T02:35:24.658Z,63.87
2022-09-03T02:36:34.611Z,63.74
2022-09-03T02:37:36.474Z,63.87
2022-09-03T02:38:40.197Z,63.92
2022-09-03T02:39:43.917Z,64.26
2022-09-03T02:40:46.164Z,64.10
2022-09-03T02:41:52.893Z,63.95
2022-09-03T02:42:55.163Z,64.01
2022-09-03T02:44:02.189Z,63.82
2022-09-03T02:45:08.749Z,63.67
2022-09-03T02:46:12.772Z,63.93
2022-09-03T02:47:14.764Z,63.99
2022-09-03T02:48:18.593Z,63.92
2022-09-03T02:49:20.722Z,64.19
2022-09-03T02:50:23.591Z,64.00
2022-09-03T02:51:25.542Z,63.88
2022-09-03T02:52:28.974Z,63.88
2022-09-03T02:53:30.798Z,63.75
2022-09-03T02:54:32.909Z,63.86
2022-09-03T02:55:35.241Z,63.72
2022-09-03T02:56:37.405Z,63.77
2022-09-03T02:57:39.246Z,64.16
2022-09-03T02:58:41.119Z,64.01
2022-09-03T02:59:43.343Z,64.14
2022-09-03T03:00:45.420Z,64.06
2022-09-03T03:01:47.875Z,64.14
2022-09-03T03:02:51.003Z,64.20
2022-09-03T03:03:53.123Z,64.22
2022-09-03T03:04:55.196Z,64.44
2022-09-03T03:06:04.628Z,64.47
2022-09-03T03:07:07.230Z,64.75
2022-09-03T03:08:09.319Z,64.77
2022-09-03T03:09:11.285Z,64.79
2022-09-03T03:10:13.655Z,65.12
2022-09-03T03:11:16.440Z,65.23
2022-09-03T03:12:18.315Z,65.42
2022-09-03T03:13:20.273Z,65.24
2022-09-03T03:14:22.482Z,65.01
2022-09-03T03:15:24.293Z,64.99
2022-09-03T03:16:26.516Z,64.91
2022-09-03T03:17:28.594Z,65.04
2022-09-03T03:18:30.587Z,65.05
2022-09-03T03:19:32.436Z,65.10
2022-09-03T03:20:34.395Z,65.04
2022-09-03T03:21:36.450Z,65.12
2022-09-03T03:22:38.397Z,65.00
2022-09-03T03:23:40.432Z,65.39
2022-09-03T03:24:42.293Z,65.56
2022-09-03T03:25:44.227Z,65.53
2022-09-03T03:26:46.359Z,65.41
2022-09-03T03:27:48.163Z,65.12
2022-09-03T03:28:50.633Z,65.23
2022-09-03T03:29:52.580Z,65.55
2022-09-03T03:30:54.632Z,65.60
2022-09-03T03:31:56.494Z,65.42
2022-09-03T03:32:58.405Z,65.18
2022-09-03T03:34:01.623Z,65.06
2022-09-03T03:35:04.447Z,64.69
2022-09-03T03:36:07.235Z,65.81
2022-09-03T03:37:09.084Z,65.98
2022-09-03T03:38:10.937Z,65.54
2022-09-03T03:39:12.779Z,65.24
2022-09-03T03:40:14.765Z,64.89
2022-09-03T03:41:21.276Z,65.00
2022-09-03T03:42:23.424Z,64.64
2022-09-03T03:43:25.315Z,64.48
2022-09-03T03:44:27.270Z,64.35
2022-09-03T03:45:29.129Z,64.54
2022-09-03T03:46:32.505Z,64.39
2022-09-03T03:47:34.341Z,64.36
2022-09-03T03:48:36.513Z,64.27
2022-09-03T03:49:38.452Z,64.37
2022-09-03T03:50:41.624Z,64.35
2022-09-03T03:51:44.324Z,64.20
2022-09-03T03:52:46.131Z,64.36
2022-09-03T03:53:48.075Z,64.20
2022-09-03T03:54:50.504Z,64.21
2022-09-03T03:56:00.120Z,64.03
2022-09-03T03:57:01.948Z,64.25
2022-09-03T03:58:04.078Z,64.18
2022-09-03T03:59:06.278Z,64.08
2022-09-03T04:00:08.751Z,64.24
2022-09-03T04:01:15.431Z,64.17
2022-09-03T04:02:17.600Z,64.45
2022-09-03T04:03:19.914Z,64.30
2022-09-03T04:04:21.991Z,64.10
2022-09-03T04:05:24.065Z,64.08
2022-09-03T04:06:26.333Z,63.93
2022-09-03T04:07:28.271Z,63.89
2022-09-03T04:08:30.429Z,63.93
2022-09-03T04:09:32.505Z,63.83
2022-09-03T04:10:35.272Z,63.88
2022-09-03T04:11:37.203Z,63.73
2022-09-03T04:12:39.046Z,63.68
2022-09-03T04:13:41.604Z,63.78
2022-09-03T04:14:43.500Z,63.77
2022-09-03T04:15:45.445Z,63.88
2022-09-03T04:16:47.855Z,63.82
2022-09-03T04:17:49.822Z,63.62
2022-09-03T04:18:53.081Z,63.52
2022-09-03T04:19:54.879Z,64.03
2022-09-03T04:21:04.077Z,63.97
2022-09-03T04:22:06.032Z,63.70
2022-09-03T04:23:08.000Z,63.45
2022-09-03T04:24:09.945Z,63.20
2022-09-03T04:25:11.845Z,62.99
2022-09-03T04:26:15.431Z,63.06
2022-09-03T04:27:17.285Z,63.10
2022-09-03T04:28:19.247Z,62.93
2022-09-03T04:29:21.068Z,62.97
2022-09-03T04:30:23.135Z,62.98
2022-09-03T04:31:25.129Z,62.85
2022-09-03T04:32:27.358Z,63.13
2022-09-03T04:33:30.456Z,63.28
2022-09-03T04:34:32.365Z,63.40
2022-09-03T04:35:34.298Z,63.67
2022-09-03T04:36:37.973Z,63.54
2022-09-03T04:37:39.941Z,63.70
2022-09-03T04:38:42.563Z,63.77
2022-09-03T04:39:44.480Z,64.04
2022-09-03T04:40:48.258Z,64.02
2022-09-03T04:41:50.108Z,63.98
2022-09-03T04:42:53.951Z,64.37
2022-09-03T04:43:57.017Z,64.59
2022-09-03T04:44:59.108Z,64.19
2022-09-03T04:46:02.190Z,64.26
2022-09-03T04:47:04.710Z,64.22
2022-09-03T04:48:06.544Z,64.46
2022-09-03T04:49:08.496Z,64.42
2022-09-03T04:50:10.649Z,64.20
2022-09-03T04:51:14.011Z,64.19
2022-09-03T04:52:15.838Z,64.23
2022-09-03T04:53:17.883Z,64.41
2022-09-03T04:54:19.862Z,64.08
2022-09-03T04:55:22.494Z,64.46
2022-09-03T04:56:26.395Z,64.73
2022-09-03T04:57:28.354Z,64.97
2022-09-03T04:58:30.399Z,64.70
2022-09-03T04:59:32.416Z,64.86
2022-09-03T05:00:35.588Z,64.92
2022-09-03T05:01:38.815Z,66.01
2022-09-03T05:02:40.753Z,65.94
2022-09-03T05:03:43.974Z,66.11
2022-09-03T05:04:45.951Z,67.54
2022-09-03T05:05:54.974Z,67.29
2022-09-03T05:06:57.130Z,68.70
2022-09-03T05:08:00.928Z,68.83
2022-09-03T05:09:03.247Z,69.23
2022-09-03T05:10:07.189Z,68.54
2022-09-03T05:11:09.713Z,67.85
2022-09-03T05:12:11.655Z,67.18
2022-09-03T05:13:13.492Z,67.23
2022-09-03T05:14:16.864Z,67.63
2022-09-03T05:15:18.798Z,67.72
2022-09-03T05:16:22.179Z,68.57
2022-09-03T05:17:24.118Z,67.93
2022-09-03T05:18:26.196Z,67.95
2022-09-03T05:19:28.037Z,67.15
2022-09-03T05:20:30.553Z,66.52
2022-09-03T05:21:32.437Z,66.04
2022-09-03T05:22:34.519Z,65.80
2022-09-03T05:23:37.822Z,65.60
2022-09-03T05:24:39.684Z,66.43
2022-09-03T05:25:41.648Z,66.03
2022-09-03T05:26:45.411Z,66.38
2022-09-03T05:27:47.195Z,66.68
2022-09-03T05:28:50.933Z,66.38
2022-09-03T05:29:52.767Z,66.28
2022-09-03T05:30:59.916Z,66.13
2022-09-03T05:32:02.405Z,65.86
2022-09-03T05:33:04.283Z,65.47
2022-09-03T05:34:07.542Z,65.03
2022-09-03T05:35:09.668Z,64.66
2022-09-03T05:36:16.139Z,65.26
2022-09-03T05:37:17.951Z,66.02
2022-09-03T05:38:20.030Z,65.43
2022-09-03T05:39:21.994Z,64.76
2022-09-03T05:40:24.347Z,64.57
2022-09-03T05:41:27.444Z,64.22
2022-09-03T05:42:29.287Z,64.21
2022-09-03T05:43:32.128Z,63.87
2022-09-03T05:44:34.016Z,63.37
2022-09-03T05:45:35.987Z,63.23
2022-09-03T05:46:37.849Z,63.63
2022-09-03T05:47:40.263Z,64.32
2022-09-03T05:48:42.306Z,63.92
2022-09-03T05:49:44.156Z,63.44
2022-09-03T05:50:47.088Z,63.35
2022-09-03T05:51:48.981Z,63.78
2022-09-03T05:52:51.832Z,63.59
2022-09-03T05:53:53.797Z,63.63
2022-09-03T05:54:55.719Z,63.54
2022-09-03T05:55:58.571Z,63.16
2022-09-03T05:57:00.629Z,63.07
2022-09-03T05:58:02.491Z,63.53
2022-09-03T05:59:05.270Z,64.28
2022-09-03T06:00:08.077Z,64.16
2022-09-03T06:01:11.989Z,64.24
2022-09-03T06:02:14.103Z,64.57
2022-09-03T06:03:16.503Z,64.81
2022-09-03T06:04:18.648Z,64.91
2022-09-03T06:05:20.820Z,64.89
2022-09-03T06:06:22.987Z,65.02
2022-09-03T06:07:25.064Z,65.22
2022-09-03T06:08:26.958Z,65.27
2022-09-03T06:09:28.811Z,65.02
2022-09-03T06:10:40.217Z,64.61
2022-09-03T06:11:35.541Z,64.44
2022-09-03T06:12:37.466Z,64.34
2022-09-03T06:13:39.304Z,64.19
2022-09-03T06:14:41.229Z,63.56
2022-09-03T06:15:43.067Z,62.93
2022-09-03T06:16:46.363Z,63.18
2022-09-03T06:17:48.231Z,62.90
2022-09-03T06:18:50.819Z,62.62
2022-09-03T06:19:54.440Z,61.89
2022-09-03T06:20:57.454Z,62.04
2022-09-03T06:21:59.544Z,61.98
2022-09-03T06:23:01.584Z,61.89
2022-09-03T06:24:03.743Z,62.36
2022-09-03T06:25:06.078Z,62.38
2022-09-03T06:26:09.927Z,62.45
2022-09-03T06:27:12.802Z,62.45
2022-09-03T06:28:16.778Z,62.39
2022-09-03T06:29:20.673Z,62.55
2022-09-03T06:30:22.598Z,62.09
2022-09-03T06:31:24.918Z,61.08
2022-09-03T06:32:26.959Z,61.16
2022-09-03T06:33:30.733Z,61.54
2022-09-03T06:34:32.693Z,61.55
2022-09-03T06:35:35.837Z,61.52
2022-09-03T06:36:38.474Z,61.25
2022-09-03T06:37:40.900Z,61.04
2022-09-03T06:38:43.417Z,61.21
2022-09-03T06:39:45.610Z,61.33
2022-09-03T06:40:52.678Z,61.04
2022-09-03T06:41:54.753Z,60.29
2022-09-03T06:42:57.816Z,60.61
2022-09-03T06:44:04.373Z,60.05
2022-09-03T06:45:07.334Z,59.75
2022-09-03T06:46:12.796Z,59.28
2022-09-03T06:47:14.753Z,59.07
2022-09-03T06:48:16.780Z,59.13
2022-09-03T06:49:18.946Z,59.23
2022-09-03T06:50:21.737Z,59.33
2022-09-03T06:51:25.472Z,59.16
2022-09-03T06:52:28.392Z,59.48
2022-09-03T06:53:32.178Z,59.76
2022-09-03T06:54:34.290Z,58.94
2022-09-03T06:55:36.543Z,58.50
2022-09-03T06:56:40.835Z,58.27
2022-09-03T06:57:43.056Z,58.41
2022-09-03T06:58:46.300Z,58.09
2022-09-03T06:59:48.329Z,57.79
2022-09-03T07:00:51.246Z,57.73
2022-09-03T07:01:53.367Z,57.84
2022-09-03T07:02:56.194Z,57.63
2022-09-03T07:03:59.279Z,57.40
2022-09-03T07:05:01.197Z,57.14
2022-09-03T07:06:07.889Z,57.02
2022-09-03T07:07:09.741Z,57.36
2022-09-03T07:08:11.648Z,57.17
2022-09-03T07:09:13.492Z,57.36
2022-09-03T07:10:15.746Z,56.72
2022-09-03T07:11:19.449Z,56.14
2022-09-03T07:12:21.469Z,55.73
2022-09-03T07:13:23.441Z,55.10
2022-09-03T07:14:25.386Z,55.26
2022-09-03T07:15:29.282Z,55.41
2022-09-03T07:16:35.577Z,55.35
2022-09-03T07:17:37.615Z,55.06
2022-09-03T07:18:39.929Z,54.73
2022-09-03T07:19:41.897Z,54.45
2022-09-03T07:20:43.900Z,54.75
2022-09-03T07:21:49.543Z,54.41
2022-09-03T07:22:49.708Z,54.42
2022-09-03T07:23:52.810Z,54.44
2022-09-03T07:24:54.649Z,54.46
2022-09-03T07:25:57.652Z,53.77
2022-09-03T07:26:59.741Z,53.25
2022-09-03T07:28:03.606Z,52.71
2022-09-03T07:29:06.939Z,52.55
2022-09-03T07:30:09.809Z,52.35
2022-09-03T07:31:13.594Z,52.51
2022-09-03T07:32:15.833Z,52.33
2022-09-03T07:33:18.056Z,52.42
2022-09-03T07:34:22.295Z,52.50
2022-09-03T07:35:24.273Z,52.83
2022-09-03T07:36:27.963Z,53.27
2022-09-03T07:37:29.783Z,53.31
2022-09-03T07:38:32.690Z,53.29
2022-09-03T07:39:34.838Z,53.48
2022-09-03T07:40:37.432Z,53.53
2022-09-03T07:41:40.387Z,53.67
2022-09-03T07:42:43.024Z,54.05
2022-09-03T07:43:45.883Z,54.06
2022-09-03T07:44:47.939Z,54.34
2022-09-03T07:45:50.369Z,54.62
2022-09-03T07:46:52.475Z,54.53
2022-09-03T07:47:54.420Z,54.37
2022-09-03T07:48:57.455Z,54.53
2022-09-03T07:49:59.341Z,55.21
2022-09-03T07:51:01.717Z,55.25
2022-09-03T07:52:03.674Z,54.70
2022-09-03T07:53:05.553Z,54.07
2022-09-03T07:54:08.968Z,53.94
2022-09-03T07:55:10.912Z,53.64
2022-09-03T07:56:13.893Z,53.56
2022-09-03T07:57:15.751Z,53.65
2022-09-03T07:58:17.583Z,53.80
2022-09-03T07:59:19.500Z,53.67
2022-09-03T08:00:21.533Z,53.55
2022-09-03T08:01:24.734Z,53.21
2022-09-03T08:02:26.859Z,53.08
2022-09-03T08:03:28.932Z,53.72
2022-09-03T08:04:31.058Z,53.19
2022-09-03T08:05:33.543Z,52.81
2022-09-03T08:06:37.004Z,52.41
2022-09-03T08:07:39.174Z,51.92
2022-09-03T08:08:42.817Z,51.68
2022-09-03T08:09:44.786Z,51.56
2022-09-03T08:10:46.563Z,51.05
2022-09-03T08:11:48.582Z,50.54
2022-09-03T08:12:50.640Z,51.63
2022-09-03T08:14:00.198Z,53.14
2022-09-03T08:15:03.024Z,54.00
2022-09-03T08:16:05.230Z,52.94
2022-09-03T08:17:07.262Z,51.86
2022-09-03T08:18:09.516Z,51.58
2022-09-03T08:19:13.534Z,51.24
2022-09-03T08:20:15.796Z,51.38
2022-09-03T08:21:18.990Z,49.88
2022-09-03T08:22:21.179Z,49.43
2022-09-03T08:23:23.102Z,49.30
2022-09-03T08:24:25.258Z,49.66
2022-09-03T08:25:27.334Z,50.47
2022-09-03T08:26:31.210Z,50.91
2022-09-03T08:27:33.536Z,50.26
2022-09-03T08:28:37.539Z,49.77
2022-09-03T08:29:39.400Z,49.70
2022-09-03T08:30:41.628Z,49.74
2022-09-03T08:31:43.551Z,50.01
2022-09-03T08:32:45.649Z,50.30
2022-09-03T08:33:49.487Z,50.31
2022-09-03T08:34:51.616Z,49.91
2022-09-03T08:35:53.570Z,49.61
2022-09-03T08:36:55.731Z,49.19
2022-09-03T08:37:59.237Z,49.07
2022-09-03T08:39:02.452Z,49.80
2022-09-03T08:40:04.789Z,49.15
2022-09-03T08:41:08.712Z,49.15
2022-09-03T08:42:29.092Z,49.00
2022-09-03T08:43:32.996Z,49.82
2022-09-03T08:44:36.767Z,49.32
2022-09-03T08:45:39.001Z,48.47
2022-09-03T08:46:42.812Z,47.97
2022-09-03T08:47:49.527Z,48.05
2022-09-03T08:48:51.914Z,48.71
2022-09-03T08:50:01.462Z,48.61
2022-09-03T08:51:05.290Z,47.94
2022-09-03T08:52:10.352Z,47.59
2022-09-03T08:53:14.147Z,48.76
2022-09-03T08:54:17.756Z,47.79
2022-09-03T08:55:27.633Z,47.93
2022-09-03T08:56:32.176Z,48.16
2022-09-03T08:57:35.918Z,48.34
2022-09-03T08:58:38.316Z,49.77
2022-09-03T08:59:40.142Z,49.47
2022-09-03T09:01:00.859Z,49.17
2022-09-03T09:02:04.689Z,48.59
2022-09-03T09:03:25.460Z,48.46
2022-09-03T09:04:32.286Z,49.93
2022-09-03T09:05:39.084Z,49.37
2022-09-03T09:06:42.792Z,49.03
2022-09-03T09:07:46.494Z,48.26
2022-09-03T09:09:07.059Z,48.75
2022-09-03T09:10:10.916Z,49.72
2022-09-03T09:11:31.361Z,49.51
2022-09-03T09:12:52.833Z,49.25
2022-09-03T09:14:05.492Z,48.35
2022-09-03T09:15:26.047Z,48.14
2022-09-03T09:16:29.874Z,47.31
2022-09-03T09:17:50.140Z,47.07
2022-09-03T09:19:12.152Z,47.13
2022-09-03T09:20:32.926Z,47.44
2022-09-03T09:21:43.029Z,47.70
2022-09-03T09:22:47.350Z,47.66
2022-09-03T09:23:50.481Z,47.33
2022-09-03T09:24:53.915Z,46.58
2022-09-03T09:25:56.576Z,46.12
2022-09-03T09:26:59.900Z,45.89
2022-09-03T09:28:03.868Z,45.94
2022-09-03T09:29:07.753Z,45.40
2022-09-03T09:30:13.836Z,44.54
2022-09-03T09:31:15.716Z,43.97
2022-09-03T09:32:18.812Z,43.69
2022-09-03T09:33:23.073Z,44.09
2022-09-03T09:34:25.132Z,44.85
2022-09-03T09:35:26.941Z,44.91
2022-09-03T09:36:29.925Z,44.70
2022-09-03T09:37:31.933Z,44.86
2022-09-03T09:38:35.084Z,44.94
2022-09-03T09:39:37.078Z,44.98
2022-09-03T09:40:44.845Z,45.01
2022-09-03T09:41:46.329Z,44.15
2022-09-03T09:42:48.161Z,44.34
2022-09-03T09:43:52.114Z,44.57
2022-09-03T09:44:54.279Z,44.24
2022-09-03T09:45:58.258Z,44.63
2022-09-03T09:47:02.493Z,45.43
2022-09-03T09:48:06.195Z,45.41
2022-09-03T09:49:10.031Z,45.29
2022-09-03T09:50:26.401Z,45.19
2022-09-03T09:51:22.546Z,44.80
2022-09-03T09:52:25.687Z,44.75
2022-09-03T09:53:28.548Z,44.57
2022-09-03T09:54:30.459Z,44.79
2022-09-03T09:55:32.427Z,44.72
2022-09-03T09:56:35.339Z,44.73
2022-09-03T09:57:37.483Z,44.95
2022-09-03T09:58:39.717Z,44.73
2022-09-03T09:59:41.817Z,45.03
2022-09-03T10:00:45.684Z,45.28
2022-09-03T10:01:47.815Z,45.35
2022-09-03T10:02:51.293Z,45.19
2022-09-03T10:03:54.596Z,45.22
2022-09-03T10:05:15.083Z,45.17
2022-09-03T10:06:16.957Z,45.43
2022-09-03T10:07:29.775Z,45.53
2022-09-03T10:08:31.893Z,45.55
2022-09-03T10:09:33.995Z,45.61
2022-09-03T10:10:38.028Z,46.00
2022-09-03T10:11:41.712Z,45.52
2022-09-03T10:12:48.235Z,45.34
2022-09-03T10:13:52.031Z,45.24
2022-09-03T10:14:58.760Z,45.15
2022-09-03T10:16:02.652Z,44.96
2022-09-03T10:17:06.319Z,44.96
2022-09-03T10:18:25.592Z,44.89
2022-09-03T10:19:26.291Z,44.96
2022-09-03T10:20:33.033Z,44.86
2022-09-03T10:21:43.016Z,44.91
2022-09-03T10:22:52.475Z,45.07
2022-09-03T10:24:06.197Z,45.13
2022-09-03T10:25:05.650Z,45.27
2022-09-03T10:26:09.458Z,45.52
2022-09-03T10:27:13.231Z,44.83
2022-09-03T10:28:15.780Z,44.49
2022-09-03T10:29:22.148Z,44.28
2022-09-03T10:30:24.105Z,44.32
2022-09-03T10:31:31.013Z,44.86
2022-09-03T10:32:39.929Z,44.98
2022-09-03T10:33:59.907Z,45.01
2022-09-03T10:35:15.774Z,44.65
2022-09-03T10:36:19.630Z,44.49
2022-09-03T10:37:23.388Z,44.41
2022-09-03T10:38:29.988Z,44.57
2022-09-03T10:39:33.747Z,45.32
2022-09-03T10:40:39.290Z,44.20
2022-09-03T10:41:51.994Z,44.15
2022-09-03T10:43:05.005Z,43.90
2022-09-03T10:44:21.115Z,44.19
2022-09-03T10:45:37.751Z,44.29
2022-09-03T10:46:52.017Z,44.24
2022-09-03T10:47:58.644Z,45.06
2022-09-03T10:49:08.906Z,44.89
2022-09-03T10:50:19.092Z,44.68
2022-09-03T10:51:22.791Z,44.50
2022-09-03T10:52:35.838Z,44.69
2022-09-03T10:53:39.700Z,44.78
2022-09-03T10:54:49.621Z,44.91
2022-09-03T10:55:53.319Z,45.28
2022-09-03T10:57:03.403Z,44.84
2022-09-03T10:58:24.024Z,44.29
2022-09-03T10:59:34.068Z,44.01
2022-09-03T11:00:37.793Z,44.13
2022-09-03T11:01:44.698Z,44.97
2022-09-03T11:03:00.715Z,45.05
2022-09-03T11:04:21.586Z,45.78
2022-09-03T11:05:25.278Z,45.17
2022-09-03T11:06:28.550Z,44.90
2022-09-03T11:07:35.187Z,45.11
2022-09-03T11:08:39.027Z,45.21
2022-09-03T11:09:55.150Z,44.89
2022-09-03T11:10:58.856Z,44.95
2022-09-03T11:12:02.579Z,45.41
2022-09-03T11:13:12.484Z,45.59
2022-09-03T11:14:16.043Z,45.37
2022-09-03T11:15:19.763Z,45.04
2022-09-03T11:16:24.779Z,44.69
2022-09-03T11:17:29.428Z,44.90
2022-09-03T11:18:50.120Z,44.92
2022-09-03T11:19:56.610Z,44.65
2022-09-03T11:21:00.483Z,44.89
2022-09-03T11:22:03.769Z,44.52
2022-09-03T11:23:07.297Z,43.87
2022-09-03T11:24:12.812Z,44.02
2022-09-03T11:25:16.226Z,44.39
2022-09-03T11:26:20.104Z,44.21
2022-09-03T11:27:32.842Z,43.93
2022-09-03T11:28:39.770Z,43.68
2022-09-03T11:29:43.554Z,44.07
2022-09-03T11:30:47.380Z,44.03
2022-09-03T11:32:00.344Z,43.64
2022-09-03T11:33:04.056Z,43.55
2022-09-03T11:34:07.507Z,43.56
2022-09-03T11:35:18.261Z,43.53
2022-09-03T11:36:22.057Z,43.08
2022-09-03T11:37:25.388Z,43.21
2022-09-03T11:38:28.658Z,43.24
2022-09-03T11:39:38.458Z,43.31
2022-09-03T11:40:42.602Z,44.06
2022-09-03T11:41:46.362Z,43.68
2022-09-03T11:42:48.344Z,43.84
2022-09-03T11:43:50.188Z,43.19
2022-09-03T11:44:52.212Z,43.44
2022-09-03T11:46:05.463Z,43.44
2022-09-03T11:47:24.843Z,43.59
2022-09-03T11:48:28.741Z,43.61
2022-09-03T11:49:31.774Z,43.46
2022-09-03T11:50:33.892Z,43.14
2022-09-03T11:51:37.014Z,43.02
2022-09-03T11:52:38.912Z,43.25
2022-09-03T11:53:40.740Z,43.10
2022-09-03T11:54:43.435Z,43.37
2022-09-03T11:55:56.319Z,43.00
2022-09-03T11:57:06.457Z,42.55
2022-09-03T11:58:13.243Z,42.26
2022-09-03T11:59:25.190Z,42.22
2022-09-03T12:00:27.275Z,42.54
2022-09-03T12:01:31.196Z,42.54
2022-09-03T12:02:35.056Z,42.78
2022-09-03T12:03:38.918Z,42.03
2022-09-03T12:04:50.648Z,42.81
2022-09-03T12:05:57.600Z,42.53
2022-09-03T12:07:04.313Z,42.54
2022-09-03T12:08:23.337Z,42.34
2022-09-03T12:09:45.874Z,42.68
2022-09-03T12:10:58.685Z,42.45
2022-09-03T12:12:02.671Z,42.66
2022-09-03T12:13:20.537Z,42.92
2022-09-03T12:14:24.225Z,42.86
2022-09-03T12:15:43.611Z,42.71
2022-09-03T12:16:48.700Z,42.70
2022-09-03T12:17:52.837Z,42.71
2022-09-03T12:18:56.687Z,42.45
2022-09-03T12:19:58.793Z,42.99
2022-09-03T12:21:02.556Z,43.11
2022-09-03T12:22:04.494Z,42.97
2022-09-03T12:23:07.208Z,42.85
2022-09-03T12:24:10.877Z,42.43
2022-09-03T12:25:14.137Z,42.50
2022-09-03T12:26:18.076Z,42.89
2022-09-03T12:27:24.318Z,42.92
2022-09-03T12:28:28.049Z,42.30
2022-09-03T12:29:31.192Z,42.08
2022-09-03T12:30:33.396Z,42.05
2022-09-03T12:31:40.090Z,42.37
2022-09-03T12:32:40.947Z,42.59
2022-09-03T12:33:42.839Z,42.32
2022-09-03T12:34:44.815Z,42.21
2022-09-03T12:35:59.362Z,42.36
2022-09-03T12:37:01.845Z,42.44
2022-09-03T12:38:05.168Z,42.52
2022-09-03T12:39:11.794Z,42.46
2022-09-03T12:40:21.279Z,42.07
2022-09-03T12:41:28.237Z,42.40
2022-09-03T12:42:31.475Z,42.11
2022-09-03T12:43:43.273Z,41.50
2022-09-03T12:44:39.105Z,41.86
2022-09-03T12:46:46.359Z,41.86
2022-09-03T12:47:49.171Z,42.28
2022-09-03T12:50:13.592Z,42.81
2022-09-03T12:52:27.143Z,42.52
2022-09-03T12:53:30.887Z,42.44
2022-09-03T12:54:36.446Z,42.20
2022-09-03T12:55:40.271Z,42.35
2022-09-03T12:56:44.048Z,42.07
2022-09-03T12:57:50.667Z,42.07
2022-09-03T12:58:54.619Z,42.20
2022-09-03T12:59:58.390Z,42.30
2022-09-03T13:01:05.016Z,42.19
2022-09-03T13:02:18.351Z,42.11
2022-09-03T13:03:25.299Z,42.74
2022-09-03T13:04:29.159Z,42.48
2022-09-03T13:05:48.310Z,42.14
2022-09-03T13:06:52.221Z,42.24
2022-09-03T13:07:56.075Z,42.38
2022-09-03T13:09:03.253Z,42.57
2022-09-03T13:10:06.475Z,43.01
2022-09-03T13:11:08.451Z,42.87
2022-09-03T13:12:12.540Z,42.54
2022-09-03T13:13:22.534Z,42.51
2022-09-03T13:14:25.658Z,42.81
2022-09-03T13:15:28.172Z,43.40
2022-09-03T13:16:47.589Z,43.25
2022-09-03T13:18:00.430Z,43.32
2022-09-03T13:19:19.386Z,43.64
2022-09-03T13:20:32.627Z,43.31
2022-09-03T13:21:42.267Z,43.24
2022-09-03T13:22:52.161Z,43.19
2022-09-03T13:23:55.911Z,43.37
2022-09-03T13:25:15.140Z,43.49
2022-09-03T13:26:36.270Z,43.76
2022-09-03T13:27:43.272Z,44.30
2022-09-03T13:29:04.248Z,44.11
2022-09-03T13:30:10.463Z,43.71
2022-09-03T13:31:26.315Z,43.91
2022-09-03T13:32:30.040Z,43.82
2022-09-03T13:33:33.752Z,43.11
2022-09-03T13:34:37.470Z,42.98
2022-09-03T13:35:41.228Z,42.93
2022-09-03T13:36:47.849Z,43.66
2022-09-03T13:37:51.575Z,43.61
2022-09-03T13:38:58.164Z,43.73
2022-09-03T13:40:01.940Z,43.47
2022-09-03T13:41:08.491Z,43.63
2022-09-03T13:42:12.411Z,43.93
2022-09-03T13:43:16.159Z,43.88
2022-09-03T13:44:21.649Z,44.02
2022-09-03T13:45:31.612Z,43.97
2022-09-03T13:46:44.492Z,43.77
2022-09-03T13:47:48.211Z,43.66
2022-09-03T13:48:51.944Z,43.96
2022-09-03T13:51:13.003Z,44.19
2022-09-03T13:52:19.920Z,44.76
2022-09-03T13:53:32.783Z,44.47
2022-09-03T13:54:48.634Z,44.40
2022-09-03T13:55:47.680Z,44.37
2022-09-03T13:57:03.903Z,44.69
2022-09-03T13:58:25.463Z,44.35
2022-09-03T13:59:47.670Z,44.04
2022-09-03T14:00:54.532Z,44.32
2022-09-03T14:02:04.506Z,44.52
2022-09-03T14:03:25.113Z,44.59
2022-09-03T14:04:45.557Z,44.69